logo
Search for airport 
image banner adimage banner adimage banner ad
image banner ad

OMNK - Sas Al Nahkil

Located in Abou Dabi, United Arab Emirates

ICAO - , IATA -

Data provided by Airmate  

General information

Coordinates: N24°26'0" E54°30'60"
Elevation is feet MSL.
Magnetic variation is 2° East
View others Airports in Abu Dhabi Emirate

Operational data

Special qualification required
Current time UTC:
Current local time:
METAR: OMAD 200700Z VRB02KT CAVOK 29/18 Q1009 BECMG 31010KT
TAF: TAF OMAD 200500Z 2006/2112 25005KT 8000 NSC BECMG 2006/2008 33011KT BECMG 2017/2019 07005KT PROB30 2101/2104 4000 HZ BECMG 2108/2110 34011KT
View NOTAMs / SUP AIP / TFR affecting this airport [VIEW]
Communications frequencies: [VIEW]

Runways:

RWY identifierQFULength (ft)Width (ft)SurfaceLDA (ft)
34341°6240103ASPH
16161°6240103ASPH

Airport contact information

Address: Abou Dabi United Arab Emirates

Satellite view of OMNK